Tristen — WDJ8628 — position and weather

sailwx.info

Track history (hours):
 
Tides and Currents Weather Stations Pressure Air Temp Water Temp Dewpoint Dewpoint Depression Visibility Wind Speed Wind Dir Waves Ship Positions

Tristen

Owner: LA Carriers, LLC, Larose, LA. More information available from US FCC via Universal Licensing System and Coast Guard Vessel Documentation Center.

Last reported at 2018-Apr-23 06:00 UTC. Time now 2018-Apr-25 16:19 UTC.
Position N 30°24' W 086°54'.

Length 24 m; draft 3 m.

Type: Towing. MMSI: 368018310.

Date/timePositionNaut miles runAvg speedWind from/ knotsBaromVisibWave heightAir tempDewpointWater temp
2018-Apr-23 06:00N 30°24' W 086°54'3 5.6
2018-Apr-23 05:30N 30°24' W 086°51'3 5.6
2018-Apr-23 05:00N 30°24' W 086°48'3 5.2
2018-Apr-23 04:29N 30°24' W 086°45'11 4.9
2018-Apr-23 02:11N 30°25' W 086°31'2 6.2
2018-Apr-23 01:56N 30°26' W 086°30'3 6.0
2018-Apr-23 01:30N 30°26' W 086°27'3 6.2
2018-Apr-23 01:00N 30°26' W 086°23'  
2018-Apr-20 00:14N 27°42' W 082°33'2 7.0
2018-Apr-20 00:00N 27°44' W 082°32'3 6.4
2018-Apr-19 23:30N 27°47' W 082°31'3 6.5
2018-Apr-19 23:00N 27°48' W 082°28'3 6.1
2018-Apr-19 22:30N 27°51' W 082°27'3 5.3
2018-Apr-19 22:00N 27°54' W 082°26'1 2.0
2018-Apr-19 21:30N 27°54' W 082°26'0 0.1
2018-Apr-19 21:00N 27°54' W 082°26'0 0.0
2018-Apr-19 20:30N 27°54' W 082°26'1 1.2
2018-Apr-19 20:00N 27°54' W 082°25'0 0.0
2018-Apr-19 19:30N 27°54' W 082°25'1 1.4
2018-Apr-19 19:00N 27°55' W 082°26'0 0.5
2018-Apr-19 18:30N 27°55' W 082°26'1 1.2
2018-Apr-19 18:00N 27°54' W 082°26'0 0.0
2018-Apr-19 17:30N 27°54' W 082°26'0 0.1
2018-Apr-19 17:00N 27°54' W 082°26'0 0.1
2018-Apr-19 16:30N 27°54' W 082°26'0 0.1
2018-Apr-19 16:00N 27°54' W 082°26'0 0.0
2018-Apr-19 15:30N 27°54' W 082°26'0 0.0
2018-Apr-19 15:00N 27°54' W 082°26'0 0.0
2018-Apr-19 14:30N 27°54' W 082°26'0 0.0
2018-Apr-19 14:00N 27°54' W 082°26'0 0.0
2018-Apr-19 13:30N 27°54' W 082°26'0 0.0
2018-Apr-19 13:00N 27°54' W 082°26'0 0.0
2018-Apr-19 12:30N 27°54' W 082°26'0 0.2
2018-Apr-19 12:00N 27°54' W 082°26'0 0.0
2018-Apr-19 11:30N 27°54' W 082°26'0 0.0
2018-Apr-19 11:00N 27°54' W 082°26'0 0.1
2018-Apr-19 10:30N 27°54' W 082°26'0 0.0
2018-Apr-19 10:00N 27°54' W 082°26'0 0.0
2018-Apr-19 09:30N 27°54' W 082°26'0 0.0
2018-Apr-19 08:59N 27°54' W 082°26'0 0.0
2018-Apr-19 08:29N 27°54' W 082°26'0 0.0
2018-Apr-19 08:00N 27°54' W 082°26'0 0.0
2018-Apr-19 07:30N 27°54' W 082°26'0 0.0
2018-Apr-19 07:00N 27°54' W 082°26'0 0.0
2018-Apr-19 06:30N 27°54' W 082°26'0 0.0
2018-Apr-19 06:00N 27°54' W 082°26'0 0.0
2018-Apr-19 05:30N 27°54' W 082°26'0 0.0
2018-Apr-19 05:00N 27°54' W 082°26'0 0.0
2018-Apr-19 04:30N 27°54' W 082°26'0 0.0
2018-Apr-19 04:00N 27°54' W 082°26'0 0.0
2018-Apr-19 03:30N 27°54' W 082°26'0 0.1
2018-Apr-19 03:00N 27°54' W 082°26'3 5.9
2018-Apr-19 02:30N 27°52' W 082°27'3 6.6
2018-Apr-19 02:00N 27°48' W 082°27'4 7.0
2018-Apr-19 01:30N 27°47' W 082°31'3 6.2
2018-Apr-19 00:59N 27°44' W 082°32'59 5.4
2018-Apr-18 14:01N 27°58' W 083°37'0 7.9
2018-Apr-18 14:00N 27°58' W 083°37'  
Track history (hours):
 
Tides and Currents Weather Stations Pressure Air Temp Water Temp Dewpoint Dewpoint Depression Visibility Wind Speed Wind Dir Waves Ship Positions

Tristen

Owner: LA Carriers, LLC, Larose, LA. More information available from US FCC via Universal Licensing System and Coast Guard Vessel Documentation Center.

Last reported at 2018-Apr-23 06:00 UTC. Time now 2018-Apr-25 16:19 UTC.
Position N 30°24' W 086°54'.

Length 24 m; draft 3 m.

Type: Towing. MMSI: 368018310.

Date/timePositionNaut miles runAvg speedWind from/ knotsBaromVisibWave heightAir tempDewpointWater temp
2018-Apr-23 06:00N 30°24' W 086°54'3 5.6
2018-Apr-23 05:30N 30°24' W 086°51'3 5.6
2018-Apr-23 05:00N 30°24' W 086°48'3 5.2
2018-Apr-23 04:29N 30°24' W 086°45'11 4.9
2018-Apr-23 02:11N 30°25' W 086°31'2 6.2
2018-Apr-23 01:56N 30°26' W 086°30'3 6.0
2018-Apr-23 01:30N 30°26' W 086°27'3 6.2
2018-Apr-23 01:00N 30°26' W 086°23'  
2018-Apr-20 00:14N 27°42' W 082°33'2 7.0
2018-Apr-20 00:00N 27°44' W 082°32'3 6.4
2018-Apr-19 23:30N 27°47' W 082°31'3 6.5
2018-Apr-19 23:00N 27°48' W 082°28'3 6.1
2018-Apr-19 22:30N 27°51' W 082°27'3 5.3
2018-Apr-19 22:00N 27°54' W 082°26'1 2.0
2018-Apr-19 21:30N 27°54' W 082°26'0 0.1
2018-Apr-19 21:00N 27°54' W 082°26'0 0.0
2018-Apr-19 20:30N 27°54' W 082°26'1 1.2
2018-Apr-19 20:00N 27°54' W 082°25'0 0.0
2018-Apr-19 19:30N 27°54' W 082°25'1 1.4
2018-Apr-19 19:00N 27°55' W 082°26'0 0.5
2018-Apr-19 18:30N 27°55' W 082°26'1 1.2
2018-Apr-19 18:00N 27°54' W 082°26'0 0.0
2018-Apr-19 17:30N 27°54' W 082°26'0 0.1
2018-Apr-19 17:00N 27°54' W 082°26'0 0.1
2018-Apr-19 16:30N 27°54' W 082°26'0 0.1
2018-Apr-19 16:00N 27°54' W 082°26'0 0.0
2018-Apr-19 15:30N 27°54' W 082°26'0 0.0
2018-Apr-19 15:00N 27°54' W 082°26'0 0.0
2018-Apr-19 14:30N 27°54' W 082°26'0 0.0
2018-Apr-19 14:00N 27°54' W 082°26'0 0.0
2018-Apr-19 13:30N 27°54' W 082°26'0 0.0
2018-Apr-19 13:00N 27°54' W 082°26'0 0.0
2018-Apr-19 12:30N 27°54' W 082°26'0 0.2
2018-Apr-19 12:00N 27°54' W 082°26'0 0.0
2018-Apr-19 11:30N 27°54' W 082°26'0 0.0
2018-Apr-19 11:00N 27°54' W 082°26'0 0.1
2018-Apr-19 10:30N 27°54' W 082°26'0 0.0
2018-Apr-19 10:00N 27°54' W 082°26'0 0.0
2018-Apr-19 09:30N 27°54' W 082°26'0 0.0
2018-Apr-19 08:59N 27°54' W 082°26'0 0.0
2018-Apr-19 08:29N 27°54' W 082°26'0 0.0
2018-Apr-19 08:00N 27°54' W 082°26'0 0.0
2018-Apr-19 07:30N 27°54' W 082°26'0 0.0
2018-Apr-19 07:00N 27°54' W 082°26'0 0.0
2018-Apr-19 06:30N 27°54' W 082°26'0 0.0
2018-Apr-19 06:00N 27°54' W 082°26'0 0.0
2018-Apr-19 05:30N 27°54' W 082°26'0 0.0
2018-Apr-19 05:00N 27°54' W 082°26'0 0.0
2018-Apr-19 04:30N 27°54' W 082°26'0 0.0
2018-Apr-19 04:00N 27°54' W 082°26'0 0.0
2018-Apr-19 03:30N 27°54' W 082°26'0 0.1
2018-Apr-19 03:00N 27°54' W 082°26'3 5.9
2018-Apr-19 02:30N 27°52' W 082°27'3 6.6
2018-Apr-19 02:00N 27°48' W 082°27'4 7.0
2018-Apr-19 01:30N 27°47' W 082°31'3 6.2
2018-Apr-19 00:59N 27°44' W 082°32'59 5.4
2018-Apr-18 14:01N 27°58' W 083°37'0 7.9
2018-Apr-18 14:00N 27°58' W 083°37'  

Dump ship's entire track history